createdAt,value
2023-05-04T00:00:05.166Z,27.15
2023-05-04T00:01:04.885Z,27.17
2023-05-04T00:02:04.880Z,27.18
2023-05-04T00:03:04.974Z,27.18
2023-05-04T00:04:04.949Z,27.15
2023-05-04T00:05:04.871Z,27.14
2023-05-04T00:06:04.868Z,27.19
2023-05-04T00:07:04.872Z,27.15
2023-05-04T00:08:04.873Z,27.17
2023-05-04T00:09:04.869Z,27.11
2023-05-04T00:10:05.032Z,27.13
2023-05-04T00:11:04.881Z,27.15
2023-05-04T00:12:04.884Z,27.17
2023-05-04T00:13:04.920Z,27.14
2023-05-04T00:14:04.875Z,27.12
2023-05-04T00:15:04.881Z,27.10
2023-05-04T00:16:04.882Z,27.10
2023-05-04T00:17:04.889Z,27.15
2023-05-04T00:18:04.936Z,27.11
2023-05-04T00:19:04.915Z,27.13
2023-05-04T00:20:05.196Z,27.13
2023-05-04T00:21:04.932Z,27.12
2023-05-04T00:22:04.952Z,27.10
2023-05-04T00:23:04.942Z,27.05
2023-05-04T00:24:04.920Z,27.12
2023-05-04T00:25:04.936Z,27.15
2023-05-04T00:26:04.930Z,27.12
2023-05-04T00:27:04.925Z,27.11
2023-05-04T00:28:04.911Z,27.12
2023-05-04T00:29:04.906Z,27.12
2023-05-04T00:30:05.037Z,27.13
2023-05-04T00:31:04.911Z,27.08
2023-05-04T00:32:04.974Z,27.05
2023-05-04T00:33:04.992Z,27.15
2023-05-04T00:34:04.889Z,27.11
2023-05-04T00:35:04.927Z,27.10
2023-05-04T00:36:04.891Z,27.09
2023-05-04T00:37:04.890Z,27.05
2023-05-04T00:38:04.912Z,27.06
2023-05-04T00:39:04.897Z,27.08
2023-05-04T00:40:05.058Z,27.06
2023-05-04T00:41:04.897Z,27.04
2023-05-04T00:42:04.917Z,27.04
2023-05-04T00:43:04.895Z,27.11
2023-05-04T00:44:04.881Z,27.09
2023-05-04T00:45:04.888Z,27.04
2023-05-04T00:46:04.893Z,27.07
2023-05-04T00:47:04.938Z,27.07
2023-05-04T00:48:04.881Z,27.08
2023-05-04T00:49:04.877Z,27.09
2023-05-04T00:50:05.147Z,27.02
2023-05-04T00:51:04.878Z,27.01
2023-05-04T00:52:04.875Z,27.05
2023-05-04T00:53:04.882Z,27.04
2023-05-04T00:54:04.885Z,27.02
2023-05-04T00:55:04.887Z,27.01
2023-05-04T00:56:04.887Z,27.01
2023-05-04T00:57:04.898Z,26.99
2023-05-04T00:58:04.926Z,26.99
2023-05-04T00:59:04.982Z,27.02
2023-05-04T01:00:05.198Z,26.99
2023-05-04T01:01:05.036Z,27.00
2023-05-04T01:02:05.004Z,27.02
2023-05-04T01:03:05.154Z,27.01
2023-05-04T01:04:05.186Z,26.98
2023-05-04T01:05:05.070Z,26.98
2023-05-04T01:06:05.097Z,26.94
2023-05-04T01:07:05.141Z,26.98
2023-05-04T01:08:05.147Z,27.01
2023-05-04T01:09:05.164Z,26.98
2023-05-04T01:10:05.417Z,26.96
2023-05-04T01:11:05.208Z,26.97
2023-05-04T01:12:05.229Z,26.94
2023-05-04T01:13:05.303Z,27.01
2023-05-04T01:14:05.259Z,26.98
2023-05-04T01:15:05.271Z,26.95
2023-05-04T01:16:05.312Z,26.97
2023-05-04T01:17:05.557Z,26.96
2023-05-04T01:18:05.501Z,26.95
2023-05-04T01:19:05.456Z,26.93
2023-05-04T01:20:05.707Z,26.99
2023-05-04T01:21:05.522Z,26.96
2023-05-04T01:22:05.535Z,26.97
2023-05-04T01:23:05.563Z,26.95
2023-05-04T01:24:05.589Z,26.98
2023-05-04T01:25:05.645Z,26.97
2023-05-04T01:26:05.620Z,26.95
2023-05-04T01:27:05.639Z,26.91
2023-05-04T01:28:05.640Z,26.94
2023-05-04T01:29:05.680Z,26.91
2023-05-04T01:30:05.900Z,26.94
2023-05-04T01:31:05.702Z,26.88
2023-05-04T01:32:05.707Z,26.90
2023-05-04T01:33:05.709Z,26.91
2023-05-04T01:34:05.673Z,26.93
2023-05-04T01:35:05.654Z,26.90
2023-05-04T01:36:05.669Z,26.91
2023-05-04T01:37:05.689Z,26.90
2023-05-04T01:38:05.700Z,26.90
2023-05-04T01:39:05.721Z,26.88
2023-05-04T01:40:05.872Z,26.87
2023-05-04T01:41:05.702Z,26.92
2023-05-04T01:42:05.693Z,26.87
2023-05-04T01:43:05.682Z,26.84
2023-05-04T01:44:05.681Z,26.91
2023-05-04T01:45:05.715Z,26.90
2023-05-04T01:46:05.725Z,26.91
2023-05-04T01:47:05.701Z,26.88
2023-05-04T01:48:05.745Z,26.85
2023-05-04T01:49:05.742Z,26.90
2023-05-04T01:50:05.961Z,26.87
2023-05-04T01:51:05.741Z,26.85
2023-05-04T01:52:05.782Z,26.88
2023-05-04T01:53:05.793Z,26.85
2023-05-04T01:54:05.819Z,26.84
2023-05-04T01:55:05.841Z,26.81
2023-05-04T01:56:05.860Z,26.91
2023-05-04T01:57:05.863Z,26.85
2023-05-04T01:58:05.860Z,26.84
2023-05-04T01:59:05.890Z,26.82
2023-05-04T02:00:06.315Z,26.84
2023-05-04T02:01:05.925Z,26.81
2023-05-04T02:02:05.956Z,26.79
2023-05-04T02:03:06.046Z,26.81
2023-05-04T02:04:06.046Z,26.80
2023-05-04T02:05:05.951Z,26.78
2023-05-04T02:06:05.977Z,26.85
2023-05-04T02:07:05.991Z,26.81
2023-05-04T02:08:05.997Z,26.88
2023-05-04T02:09:06.013Z,26.85
2023-05-04T02:10:06.184Z,26.85
2023-05-04T02:11:06.029Z,26.80
2023-05-04T02:12:06.085Z,26.81
2023-05-04T02:13:06.056Z,26.79
2023-05-04T02:14:06.050Z,26.84
2023-05-04T02:15:06.059Z,26.84
2023-05-04T02:16:06.086Z,26.82
2023-05-04T02:17:06.165Z,26.74
2023-05-04T02:18:06.172Z,26.75
2023-05-04T02:19:06.133Z,26.72
2023-05-04T02:20:06.406Z,26.71
2023-05-04T02:21:06.177Z,26.71
2023-05-04T02:22:06.203Z,26.77
2023-05-04T02:23:06.229Z,26.77
2023-05-04T02:24:06.261Z,26.74
2023-05-04T02:25:06.232Z,26.73
2023-05-04T02:26:06.228Z,26.71
2023-05-04T02:27:06.247Z,26.74
2023-05-04T02:28:06.260Z,26.75
2023-05-04T02:29:06.270Z,26.71
2023-05-04T02:30:06.536Z,26.75
2023-05-04T02:31:06.364Z,26.75
2023-05-04T02:32:06.347Z,26.71
2023-05-04T02:33:06.309Z,26.77
2023-05-04T02:34:06.285Z,26.68
2023-05-04T02:35:06.314Z,26.70
2023-05-04T02:36:06.316Z,26.77
2023-05-04T02:37:07.582Z,26.74
2023-05-04T02:38:06.301Z,26.70
2023-05-04T02:39:06.319Z,26.67
2023-05-04T02:40:06.629Z,26.70
2023-05-04T02:41:06.346Z,26.71
2023-05-04T02:42:06.350Z,26.68
2023-05-04T02:43:06.356Z,26.67
2023-05-04T02:44:06.383Z,26.69
2023-05-04T02:45:06.380Z,26.72
2023-05-04T02:46:06.412Z,26.67
2023-05-04T02:47:06.402Z,26.68
2023-05-04T02:48:06.444Z,26.74
2023-05-04T02:49:06.427Z,26.69
2023-05-04T02:50:06.690Z,26.68
2023-05-04T02:51:06.442Z,26.67
2023-05-04T02:52:06.458Z,26.68
2023-05-04T02:53:06.465Z,26.69
2023-05-04T02:54:06.463Z,26.67
2023-05-04T02:55:06.462Z,26.69
2023-05-04T02:56:06.445Z,26.64
2023-05-04T02:57:06.453Z,26.64
2023-05-04T02:58:06.445Z,26.67
2023-05-04T02:59:06.486Z,26.66
2023-05-04T03:00:06.730Z,26.65
2023-05-04T03:01:06.491Z,26.68
2023-05-04T03:02:06.464Z,26.65
2023-05-04T03:03:06.497Z,26.66
2023-05-04T03:04:06.511Z,26.63
2023-05-04T03:05:06.582Z,26.68
2023-05-04T03:06:06.484Z,26.64
2023-05-04T03:07:06.490Z,26.64
2023-05-04T03:08:06.487Z,26.64
2023-05-04T03:09:06.489Z,26.60
2023-05-04T03:10:06.775Z,26.66
2023-05-04T03:11:06.500Z,26.64
2023-05-04T03:12:06.511Z,26.61
2023-05-04T03:13:06.564Z,26.60
2023-05-04T03:14:06.527Z,26.64
2023-05-04T03:15:06.514Z,26.65
2023-05-04T03:16:06.526Z,26.61
2023-05-04T03:17:06.535Z,26.67
2023-05-04T03:18:06.567Z,26.58
2023-05-04T03:19:06.547Z,26.60
2023-05-04T03:20:06.790Z,26.57
2023-05-04T03:21:06.552Z,26.63
2023-05-04T03:22:06.537Z,26.61
2023-05-04T03:23:06.539Z,26.61
2023-05-04T03:24:06.541Z,26.60
2023-05-04T03:25:06.532Z,26.61
2023-05-04T03:26:06.522Z,26.60
2023-05-04T03:27:06.536Z,26.60
2023-05-04T03:28:06.518Z,26.63
2023-05-04T03:29:06.522Z,26.61
2023-05-04T03:30:06.777Z,26.57
2023-05-04T03:31:06.529Z,26.60
2023-05-04T03:32:06.645Z,26.58
2023-05-04T03:33:06.574Z,26.58
2023-05-04T03:34:06.514Z,26.55
2023-05-04T03:35:06.509Z,26.57
2023-05-04T03:36:06.519Z,26.55
2023-05-04T03:37:06.548Z,26.60
2023-05-04T03:38:06.559Z,26.50
2023-05-04T03:39:06.550Z,26.61
2023-05-04T03:40:06.786Z,26.57
2023-05-04T03:41:06.545Z,26.55
2023-05-04T03:42:06.579Z,26.58
2023-05-04T03:43:06.574Z,26.51
2023-05-04T03:44:06.593Z,26.53
2023-05-04T03:45:06.582Z,26.54
2023-05-04T03:46:06.698Z,26.54
2023-05-04T03:47:06.625Z,26.53
2023-05-04T03:48:06.700Z,26.57
2023-05-04T03:49:06.665Z,26.51
2023-05-04T03:50:07.011Z,26.58
2023-05-04T03:51:06.752Z,26.51
2023-05-04T03:52:06.782Z,26.60
2023-05-04T03:53:06.832Z,26.55
2023-05-04T03:54:06.723Z,26.50
2023-05-04T03:55:06.749Z,26.52
2023-05-04T03:56:06.774Z,26.53
2023-05-04T03:57:06.768Z,26.51
2023-05-04T03:58:06.784Z,26.54
2023-05-04T03:59:06.797Z,26.54
2023-05-04T04:00:07.049Z,26.50
2023-05-04T04:01:06.814Z,26.50
2023-05-04T04:02:06.888Z,26.47
2023-05-04T04:03:06.930Z,26.48
2023-05-04T04:04:06.904Z,26.46
2023-05-04T04:05:06.869Z,26.43
2023-05-04T04:06:06.899Z,26.44
2023-05-04T04:07:06.886Z,26.44
2023-05-04T04:08:06.914Z,26.47
2023-05-04T04:09:06.901Z,26.48
2023-05-04T04:10:07.129Z,26.45
2023-05-04T04:11:06.945Z,26.45
2023-05-04T04:12:06.927Z,26.46
2023-05-04T04:13:06.972Z,26.43
2023-05-04T04:14:06.944Z,26.45
2023-05-04T04:15:06.944Z,26.40
2023-05-04T04:16:07.028Z,26.40
2023-05-04T04:17:06.966Z,26.43
2023-05-04T04:18:07.048Z,26.40
2023-05-04T04:19:06.933Z,26.39
2023-05-04T04:20:07.105Z,26.43
2023-05-04T04:21:06.930Z,26.44
2023-05-04T04:22:06.918Z,26.44
2023-05-04T04:23:06.901Z,26.43
2023-05-04T04:24:06.902Z,26.39
2023-05-04T04:25:06.899Z,26.43
2023-05-04T04:26:06.891Z,26.36
2023-05-04T04:27:06.893Z,26.40
2023-05-04T04:28:06.881Z,26.39
2023-05-04T04:29:06.883Z,26.39
2023-05-04T04:30:07.043Z,26.36
2023-05-04T04:31:06.894Z,26.37
2023-05-04T04:32:06.900Z,26.36
2023-05-04T04:33:06.913Z,26.41
2023-05-04T04:34:06.869Z,26.37
2023-05-04T04:35:06.888Z,26.33
2023-05-04T04:36:06.871Z,26.39
2023-05-04T04:37:06.894Z,26.36
2023-05-04T04:38:06.877Z,26.37
2023-05-04T04:39:06.866Z,26.37
2023-05-04T04:40:06.943Z,26.35
2023-05-04T04:41:06.868Z,26.36
2023-05-04T04:42:06.865Z,26.36
2023-05-04T04:43:06.869Z,26.39
2023-05-04T04:44:06.861Z,26.36
2023-05-04T04:45:06.846Z,26.32
2023-05-04T04:46:06.844Z,26.37
2023-05-04T04:47:06.908Z,26.30
2023-05-04T04:48:07.192Z,26.36
2023-05-04T04:49:06.848Z,26.32
2023-05-04T04:50:06.982Z,26.32
2023-05-04T04:51:06.853Z,26.29
2023-05-04T04:52:06.855Z,26.32
2023-05-04T04:53:06.850Z,26.28
2023-05-04T04:54:06.854Z,26.30
2023-05-04T04:55:06.852Z,26.32
2023-05-04T04:56:06.867Z,26.28
2023-05-04T04:57:06.879Z,26.30
2023-05-04T04:58:06.892Z,26.29
2023-05-04T04:59:06.901Z,26.29
2023-05-04T05:00:07.052Z,26.33
2023-05-04T05:01:06.917Z,26.26
2023-05-04T05:02:06.901Z,26.26
2023-05-04T05:03:06.932Z,26.28
2023-05-04T05:04:06.904Z,26.26
2023-05-04T05:05:07.081Z,26.28
2023-05-04T05:06:06.903Z,26.22
2023-05-04T05:07:06.908Z,26.28
2023-05-04T05:08:06.936Z,26.28
2023-05-04T05:09:06.905Z,26.25
2023-05-04T05:10:07.190Z,26.26
2023-05-04T05:11:06.896Z,26.19
2023-05-04T05:12:06.890Z,26.28
2023-05-04T05:13:06.950Z,26.21
2023-05-04T05:14:06.890Z,26.28
2023-05-04T05:15:06.887Z,26.24
2023-05-04T05:16:06.976Z,26.22
2023-05-04T05:17:06.940Z,26.22
2023-05-04T05:18:06.979Z,26.17
2023-05-04T05:19:06.866Z,26.21
2023-05-04T05:20:06.996Z,26.24
2023-05-04T05:21:06.861Z,26.22
2023-05-04T05:22:06.880Z,26.22
2023-05-04T05:23:06.874Z,26.22
2023-05-04T05:24:06.846Z,26.19
2023-05-04T05:25:06.875Z,26.23
2023-05-04T05:26:06.851Z,26.21
2023-05-04T05:27:06.837Z,26.19
2023-05-04T05:28:06.842Z,26.18
2023-05-04T05:29:06.866Z,26.25
2023-05-04T05:30:07.203Z,26.21
2023-05-04T05:31:06.903Z,26.23
2023-05-04T05:32:06.851Z,26.19
2023-05-04T05:33:06.942Z,26.24
2023-05-04T05:34:06.815Z,26.14
2023-05-04T05:35:06.855Z,26.55
2023-05-04T05:36:06.847Z,27.06
2023-05-04T05:37:06.832Z,27.43
2023-05-04T05:38:06.840Z,27.85
2023-05-04T05:39:06.810Z,28.44
2023-05-04T05:40:07.029Z,28.69
2023-05-04T05:41:06.848Z,29.01
2023-05-04T05:42:06.796Z,29.52
2023-05-04T05:43:06.814Z,30.26
2023-05-04T05:44:06.808Z,29.71
2023-05-04T05:45:06.885Z,29.75
2023-05-04T05:46:07.063Z,30.09
2023-05-04T05:47:07.000Z,29.90
2023-05-04T05:48:07.106Z,29.76
2023-05-04T05:49:07.075Z,29.88
2023-05-04T05:50:07.289Z,30.32
2023-05-04T05:51:07.157Z,30.08
2023-05-04T05:52:07.195Z,30.31
2023-05-04T05:53:08.205Z,30.17
2023-05-04T05:54:07.347Z,30.15
2023-05-04T05:55:07.283Z,30.30
2023-05-04T05:56:07.333Z,30.29
2023-05-04T05:57:07.374Z,30.58
2023-05-04T05:58:07.409Z,30.38
2023-05-04T05:59:07.436Z,30.27
2023-05-04T06:00:07.633Z,30.34
2023-05-04T06:01:07.575Z,30.29
2023-05-04T06:02:07.726Z,30.33
2023-05-04T06:03:07.764Z,30.36
2023-05-04T06:04:07.742Z,30.47
2023-05-04T06:05:07.786Z,30.43
2023-05-04T06:06:07.696Z,30.49
2023-05-04T06:07:07.749Z,30.56
2023-05-04T06:08:07.736Z,30.42
2023-05-04T06:09:07.775Z,30.40
2023-05-04T06:10:08.083Z,30.40
2023-05-04T06:11:07.826Z,30.53
2023-05-04T06:12:07.872Z,30.53
2023-05-04T06:13:07.959Z,30.73
2023-05-04T06:14:07.866Z,30.58
2023-05-04T06:15:07.874Z,30.45
2023-05-04T06:16:08.357Z,30.51
2023-05-04T06:17:07.915Z,30.58
2023-05-04T06:18:07.989Z,30.75
2023-05-04T06:19:07.912Z,30.57
2023-05-04T06:20:08.000Z,30.64
2023-05-04T06:21:08.030Z,30.61
2023-05-04T06:22:07.919Z,30.58
2023-05-04T06:23:07.933Z,30.60
2023-05-04T06:24:07.927Z,30.51
2023-05-04T06:25:08.423Z,30.44
2023-05-04T06:26:07.955Z,30.39
2023-05-04T06:27:07.923Z,30.12
2023-05-04T06:28:08.063Z,29.77
2023-05-04T06:29:08.006Z,29.07
2023-05-04T06:30:08.269Z,28.58
2023-05-04T06:31:07.965Z,28.08
2023-05-04T06:32:07.985Z,27.73
2023-05-04T06:33:07.930Z,27.39
2023-05-04T06:34:07.906Z,27.14
2023-05-04T06:35:07.821Z,27.23
2023-05-04T06:36:07.795Z,26.82
2023-05-04T06:37:07.737Z,26.69
2023-05-04T06:38:07.797Z,26.55
2023-05-04T06:39:07.679Z,26.45
2023-05-04T06:40:07.685Z,26.41
2023-05-04T06:41:07.641Z,26.45
2023-05-04T06:42:07.541Z,26.75
2023-05-04T06:43:07.513Z,26.65
2023-05-04T06:44:07.564Z,26.62
2023-05-04T06:45:07.443Z,26.45
2023-05-04T06:46:07.385Z,26.39
2023-05-04T06:47:07.353Z,26.43
2023-05-04T06:48:07.768Z,26.46
2023-05-04T06:49:07.240Z,26.55
2023-05-04T06:50:07.223Z,26.66
2023-05-04T06:51:07.157Z,26.71
2023-05-04T06:52:07.116Z,26.78
2023-05-04T06:53:07.097Z,26.86
2023-05-04T06:54:07.025Z,26.91
2023-05-04T06:55:07.737Z,27.05
2023-05-04T06:56:06.915Z,27.11
2023-05-04T06:57:06.879Z,27.17
2023-05-04T06:58:06.954Z,27.29
2023-05-04T06:59:06.783Z,27.43
2023-05-04T07:00:06.901Z,27.44
2023-05-04T07:01:06.807Z,27.50
2023-05-04T07:02:06.814Z,27.73
2023-05-04T07:03:06.790Z,27.76
2023-05-04T07:04:06.885Z,27.86
2023-05-04T07:05:06.709Z,27.93
2023-05-04T07:06:06.664Z,27.97
2023-05-04T07:07:06.651Z,27.86
2023-05-04T07:08:06.599Z,25.30
2023-05-04T07:09:06.582Z,23.27
2023-05-04T07:10:06.756Z,24.64
2023-05-04T07:11:06.529Z,24.68
2023-05-04T07:12:06.578Z,24.67
2023-05-04T07:13:06.671Z,24.45
2023-05-04T07:14:07.870Z,23.88
2023-05-04T07:15:06.664Z,24.02
2023-05-04T07:16:06.711Z,24.06
2023-05-04T07:17:06.708Z,23.94
2023-05-04T07:18:06.789Z,24.06
2023-05-04T07:19:06.727Z,24.08
2023-05-04T07:20:06.965Z,25.71
2023-05-04T07:21:26.086Z,25.64
2023-05-04T07:22:08.106Z,26.44
2023-05-04T07:23:06.694Z,26.48
2023-05-04T07:24:06.692Z,26.54
2023-05-04T07:25:06.722Z,26.80
2023-05-04T07:26:06.693Z,26.73
2023-05-04T07:27:06.675Z,27.00
2023-05-04T07:28:07.245Z,27.22
2023-05-04T07:29:06.645Z,27.04
2023-05-04T07:30:06.832Z,27.23
2023-05-04T07:31:06.677Z,25.80
2023-05-04T07:32:06.646Z,26.96
2023-05-04T07:33:06.647Z,25.85
2023-05-04T07:34:06.669Z,26.56
2023-05-04T07:35:06.628Z,26.18
2023-05-04T07:36:06.695Z,27.14
2023-05-04T07:37:06.741Z,27.27
2023-05-04T07:38:06.539Z,27.30
2023-05-04T07:39:06.540Z,27.67
2023-05-04T07:40:06.887Z,28.03
2023-05-04T07:41:06.509Z,27.98
2023-05-04T07:42:06.510Z,27.94
2023-05-04T07:43:06.620Z,27.95
2023-05-04T07:44:06.515Z,28.08
2023-05-04T07:45:06.542Z,28.14
2023-05-04T07:46:06.557Z,28.25
2023-05-04T07:47:06.519Z,28.19
2023-05-04T07:48:06.550Z,28.35
2023-05-04T07:49:06.488Z,28.43
2023-05-04T07:50:06.678Z,28.36
2023-05-04T07:51:06.486Z,28.35
2023-05-04T07:52:06.477Z,31.35
2023-05-04T07:53:06.474Z,29.02
2023-05-04T07:54:06.475Z,28.65
2023-05-04T07:55:06.510Z,28.74
2023-05-04T07:56:06.574Z,28.68
2023-05-04T07:57:06.638Z,28.65
2023-05-04T07:58:06.745Z,28.73
2023-05-04T07:59:06.721Z,28.73
2023-05-04T08:00:06.879Z,29.04
2023-05-04T08:01:06.830Z,29.01
2023-05-04T08:02:06.793Z,29.16
2023-05-04T08:03:06.781Z,29.14
2023-05-04T08:04:06.692Z,29.03
2023-05-04T08:05:06.702Z,29.20
2023-05-04T08:06:06.726Z,29.07
2023-05-04T08:07:06.771Z,29.10
2023-05-04T08:08:06.658Z,29.23
2023-05-04T08:09:06.707Z,29.45
2023-05-04T08:10:06.727Z,29.45
2023-05-04T08:11:19.390Z,29.46
2023-05-04T08:12:07.603Z,29.28
2023-05-04T08:13:06.620Z,29.27
2023-05-04T08:14:06.577Z,29.47
2023-05-04T08:15:06.796Z,29.35
2023-05-04T08:16:06.545Z,29.37
2023-05-04T08:17:06.534Z,29.41
2023-05-04T08:18:06.541Z,29.54
2023-05-04T08:19:06.586Z,29.61
2023-05-04T08:20:06.495Z,29.61
2023-05-04T08:21:06.490Z,29.60
2023-05-04T08:22:06.435Z,29.61
2023-05-04T08:23:06.453Z,29.72
2023-05-04T08:24:06.408Z,29.79
2023-05-04T08:25:06.577Z,29.78
2023-05-04T08:26:06.382Z,29.71
2023-05-04T08:27:08.925Z,29.66
2023-05-04T08:28:06.357Z,30.15
2023-05-04T08:29:06.327Z,29.76
2023-05-04T08:30:06.390Z,29.30
2023-05-04T08:31:06.268Z,29.25
2023-05-04T08:32:06.379Z,29.01
2023-05-04T08:33:06.339Z,28.97
2023-05-04T08:34:06.817Z,28.84
2023-05-04T08:35:06.292Z,28.76
2023-05-04T08:36:06.168Z,28.66
2023-05-04T08:37:06.203Z,28.49
2023-05-04T08:38:06.208Z,28.41
2023-05-04T08:39:06.122Z,28.29
2023-05-04T08:40:06.208Z,28.16
2023-05-04T08:41:06.206Z,27.93
2023-05-04T08:42:06.053Z,27.88
2023-05-04T08:43:06.049Z,27.83
2023-05-04T08:44:06.015Z,27.76
2023-05-04T08:45:06.250Z,27.69
2023-05-04T08:46:06.097Z,27.76
2023-05-04T08:47:06.026Z,27.79
2023-05-04T08:48:06.231Z,28.05
2023-05-04T08:49:05.954Z,28.51
2023-05-04T08:50:05.957Z,28.22
2023-05-04T08:51:05.935Z,29.35
2023-05-04T08:52:05.921Z,29.32
2023-05-04T08:53:05.974Z,29.88
2023-05-04T08:54:06.036Z,29.02
2023-05-04T08:55:06.297Z,28.24
2023-05-04T08:56:06.147Z,27.86
2023-05-04T08:57:06.252Z,27.17
2023-05-04T08:58:06.232Z,26.96
2023-05-04T08:59:06.248Z,27.19
2023-05-04T09:00:06.321Z,27.34
2023-05-04T09:01:06.577Z,27.16
2023-05-04T09:02:06.710Z,27.24
2023-05-04T09:03:06.603Z,27.36
2023-05-04T09:04:06.556Z,27.29
2023-05-04T09:05:06.690Z,27.31
2023-05-04T09:06:06.582Z,27.34
2023-05-04T09:07:06.602Z,27.36
2023-05-04T09:08:06.688Z,27.16
2023-05-04T09:09:06.732Z,27.16
2023-05-04T09:10:08.264Z,27.29
2023-05-04T09:11:06.824Z,27.26
2023-05-04T09:12:06.840Z,27.36
2023-05-04T09:13:06.895Z,27.23
2023-05-04T09:14:06.924Z,27.29
2023-05-04T09:15:07.063Z,27.14
2023-05-04T09:16:06.878Z,27.99
2023-05-04T09:17:06.941Z,27.49
2023-05-04T09:18:06.920Z,27.32
2023-05-04T09:19:06.859Z,27.56
2023-05-04T09:20:06.859Z,27.49
2023-05-04T09:21:06.813Z,27.56
2023-05-04T09:22:06.864Z,27.59
2023-05-04T09:23:06.810Z,27.84
2023-05-04T09:24:06.800Z,27.83
2023-05-04T09:25:06.867Z,27.83
2023-05-04T09:26:07.326Z,27.99
2023-05-04T09:27:06.802Z,27.92
2023-05-04T09:28:06.788Z,28.01
2023-05-04T09:29:06.815Z,27.98
2023-05-04T09:30:06.819Z,27.80
2023-05-04T09:31:06.847Z,27.75
2023-05-04T09:32:06.799Z,27.59
2023-05-04T09:33:06.820Z,27.67
2023-05-04T09:34:06.837Z,27.69
2023-05-04T09:35:07.051Z,27.71
2023-05-04T09:36:06.815Z,27.61
2023-05-04T09:37:06.844Z,27.74
2023-05-04T09:38:06.840Z,27.86
2023-05-04T09:39:06.840Z,27.69
2023-05-04T09:40:06.794Z,27.63
2023-05-04T09:41:06.752Z,28.05
2023-05-04T09:42:06.733Z,28.69
2023-05-04T09:43:06.752Z,28.45
2023-05-04T09:44:06.722Z,28.15
2023-05-04T09:45:06.969Z,28.33
2023-05-04T09:46:06.707Z,28.10
2023-05-04T09:47:06.627Z,27.76
2023-05-04T09:48:06.618Z,27.53
2023-05-04T09:49:06.586Z,27.30
2023-05-04T09:50:06.562Z,27.15
2023-05-04T09:51:06.554Z,27.15
2023-05-04T09:52:06.566Z,26.75
2023-05-04T09:53:06.525Z,26.68
2023-05-04T09:54:06.503Z,26.86
2023-05-04T09:55:06.730Z,26.72
2023-05-04T09:56:08.126Z,27.41
2023-05-04T09:57:06.546Z,27.33
2023-05-04T09:58:06.461Z,27.70
2023-05-04T09:59:06.429Z,27.33
2023-05-04T10:00:06.399Z,27.32
2023-05-04T10:01:06.375Z,27.23
2023-05-04T10:02:14.582Z,27.08
2023-05-04T10:03:07.436Z,26.97
2023-05-04T10:04:06.335Z,26.85
2023-05-04T10:05:06.652Z,26.74
2023-05-04T10:06:06.282Z,26.71
2023-05-04T10:07:06.251Z,26.77
2023-05-04T10:08:06.236Z,26.66
2023-05-04T10:09:06.259Z,26.51
2023-05-04T10:10:06.201Z,26.48
2023-05-04T10:11:06.221Z,26.54
2023-05-04T10:12:06.157Z,26.48
2023-05-04T10:13:06.187Z,26.40
2023-05-04T10:14:06.112Z,26.12
2023-05-04T10:15:06.294Z,26.16
2023-05-04T10:16:06.161Z,25.99
2023-05-04T10:17:06.169Z,26.14
2023-05-04T10:18:06.189Z,26.14
2023-05-04T10:19:06.242Z,26.16
2023-05-04T10:20:06.274Z,26.08
2023-05-04T10:21:06.371Z,26.20
2023-05-04T10:22:06.329Z,26.16
2023-05-04T10:23:06.405Z,26.03
2023-05-04T10:24:06.437Z,26.08
2023-05-04T10:25:06.559Z,26.08
2023-05-04T10:26:06.573Z,26.14
2023-05-04T10:27:06.603Z,26.14
2023-05-04T10:28:06.610Z,26.08
2023-05-04T10:29:06.611Z,26.13
2023-05-04T10:30:06.648Z,26.13
2023-05-04T10:31:06.680Z,26.08
2023-05-04T10:32:06.835Z,26.13
2023-05-04T10:33:06.837Z,26.10
2023-05-04T10:34:06.831Z,26.17
2023-05-04T10:35:07.031Z,26.13
2023-05-04T10:36:06.924Z,26.18
2023-05-04T10:37:06.940Z,26.24
2023-05-04T10:38:07.074Z,26.18
2023-05-04T10:39:07.007Z,26.14
2023-05-04T10:40:07.963Z,26.13
2023-05-04T10:41:07.158Z,26.16
2023-05-04T10:42:07.127Z,26.11
2023-05-04T10:43:07.288Z,26.11
2023-05-04T10:44:07.193Z,26.04
2023-05-04T10:45:07.249Z,26.04
2023-05-04T10:46:07.290Z,25.95
2023-05-04T10:47:07.389Z,25.98
2023-05-04T10:48:07.386Z,26.06
2023-05-04T10:49:07.369Z,26.03
2023-05-04T10:50:07.445Z,25.98
2023-05-04T10:51:07.456Z,25.97
2023-05-04T10:52:07.575Z,25.96
2023-05-04T10:53:07.560Z,25.90
2023-05-04T10:54:08.323Z,25.92
2023-05-04T10:55:07.702Z,25.85
2023-05-04T10:56:07.621Z,25.87
2023-05-04T10:57:07.675Z,25.90
2023-05-04T10:58:07.631Z,25.85
2023-05-04T10:59:07.929Z,25.83
2023-05-04T11:00:07.643Z,25.82
2023-05-04T11:01:07.632Z,25.82
2023-05-04T11:02:08.386Z,25.83
2023-05-04T11:03:07.669Z,25.76
2023-05-04T11:04:07.551Z,25.75
2023-05-04T11:05:07.873Z,25.76
2023-05-04T11:06:07.665Z,25.80
2023-05-04T11:07:07.572Z,25.76
2023-05-04T11:08:07.677Z,25.69
2023-05-04T11:09:07.674Z,25.68
2023-05-04T11:10:07.715Z,25.74
2023-05-04T11:11:07.725Z,25.63
2023-05-04T11:12:07.793Z,25.68
2023-05-04T11:13:08.188Z,25.69
2023-05-04T11:14:07.829Z,25.69
2023-05-04T11:15:08.106Z,25.63
2023-05-04T11:16:07.921Z,25.69
2023-05-04T11:17:16.009Z,25.66
2023-05-04T11:18:09.104Z,25.65
2023-05-04T11:19:07.955Z,25.59
2023-05-04T11:20:07.891Z,25.62
2023-05-04T11:21:08.028Z,25.51
2023-05-04T11:22:07.832Z,25.57
2023-05-04T11:23:10.337Z,25.49
2023-05-04T11:24:07.982Z,25.44
2023-05-04T11:25:08.023Z,25.45
2023-05-04T11:26:08.062Z,25.37
2023-05-04T11:27:08.234Z,25.34
2023-05-04T11:28:08.823Z,25.31
2023-05-04T11:29:09.146Z,25.25
2023-05-04T11:30:08.924Z,25.25
2023-05-04T11:31:08.064Z,25.24
2023-05-04T11:32:07.976Z,25.15
2023-05-04T11:33:07.974Z,25.14
2023-05-04T11:34:08.134Z,25.07
2023-05-04T11:35:08.224Z,25.14
2023-05-04T11:36:07.940Z,25.12
2023-05-04T11:37:07.891Z,25.09
2023-05-04T11:38:07.884Z,25.04
2023-05-04T11:39:07.911Z,24.97
2023-05-04T11:40:07.845Z,24.95
2023-05-04T11:41:07.829Z,24.98
2023-05-04T11:42:07.826Z,24.87
2023-05-04T11:43:07.791Z,24.86
2023-05-04T11:44:07.812Z,24.84
2023-05-04T11:45:07.802Z,24.85
2023-05-04T11:46:07.863Z,24.71
2023-05-04T11:47:07.734Z,24.72
2023-05-04T11:48:07.791Z,24.68
2023-05-04T11:49:07.703Z,24.71
2023-05-04T11:50:07.721Z,24.62
2023-05-04T11:51:07.676Z,24.68
2023-05-04T11:52:07.769Z,24.68
2023-05-04T11:53:07.673Z,24.66
2023-05-04T11:54:07.677Z,24.55
2023-05-04T11:55:07.894Z,24.54
2023-05-04T11:56:07.733Z,24.52
2023-05-04T11:57:07.727Z,24.51
2023-05-04T11:58:07.749Z,24.50
2023-05-04T11:59:07.752Z,24.47
2023-05-04T12:00:07.854Z,24.50
2023-05-04T12:01:08.397Z,24.50
2023-05-04T12:02:07.853Z,24.44
2023-05-04T12:03:08.156Z,24.45
2023-05-04T12:04:08.217Z,24.44
2023-05-04T12:05:08.241Z,24.37
2023-05-04T12:06:08.020Z,24.37
2023-05-04T12:07:08.046Z,24.35
2023-05-04T12:08:08.079Z,24.30
2023-05-04T12:09:08.138Z,24.23
2023-05-04T12:10:08.182Z,24.33
2023-05-04T12:11:08.175Z,24.32
2023-05-04T12:12:08.229Z,24.29
2023-05-04T12:13:08.313Z,24.20
2023-05-04T12:14:08.261Z,24.16
2023-05-04T12:15:08.469Z,24.14
2023-05-04T12:16:08.350Z,24.15
2023-05-04T12:17:08.333Z,24.14
2023-05-04T12:18:08.416Z,24.15
2023-05-04T12:19:08.471Z,24.04
2023-05-04T12:20:08.454Z,24.03
2023-05-04T12:21:08.482Z,24.06
2023-05-04T12:22:08.517Z,24.03
2023-05-04T12:23:08.654Z,23.99
2023-05-04T12:24:08.584Z,23.96
2023-05-04T12:25:09.009Z,24.01
2023-05-04T12:26:08.623Z,23.96
2023-05-04T12:27:08.614Z,23.94
2023-05-04T12:28:08.601Z,23.88
2023-05-04T12:29:08.630Z,23.92
2023-05-04T12:30:08.578Z,23.85
2023-05-04T12:31:08.557Z,23.88
2023-05-04T12:32:08.548Z,23.88
2023-05-04T12:33:08.564Z,23.88
2023-05-04T12:34:08.547Z,23.86
2023-05-04T12:35:08.777Z,23.84
2023-05-04T12:36:08.457Z,23.82
2023-05-04T12:37:08.439Z,23.84
2023-05-04T12:38:08.467Z,23.82
2023-05-04T12:39:08.450Z,23.82
2023-05-04T12:40:21.207Z,23.81
2023-05-04T12:41:09.426Z,23.78
2023-05-04T12:42:08.422Z,23.82
2023-05-04T12:43:08.399Z,23.74
2023-05-04T12:44:08.388Z,23.73
2023-05-04T12:45:08.521Z,23.75
2023-05-04T12:46:08.393Z,23.74
2023-05-04T12:47:08.341Z,23.74
2023-05-04T12:48:08.388Z,23.71
2023-05-04T12:49:08.383Z,23.78
2023-05-04T12:50:08.321Z,23.72
2023-05-04T12:51:08.290Z,23.71
2023-05-04T12:52:08.309Z,23.75